sensor_id;sensor_type;location;lat;lon;timestamp;P1;durP1;ratioP1;P2;durP2;ratioP2
56399;SDS011;42298;53.638;9.876;2023-04-01T00:00:02;14.43;;;7.47;;
56399;SDS011;42298;53.638;9.876;2023-04-01T00:02:28;11.00;;;6.55;;
56399;SDS011;42298;53.638;9.876;2023-04-01T00:04:53;13.65;;;6.88;;
56399;SDS011;42298;53.638;9.876;2023-04-01T00:07:18;13.07;;;7.15;;
56399;SDS011;42298;53.638;9.876;2023-04-01T00:09:44;12.38;;;7.47;;
56399;SDS011;42298;53.638;9.876;2023-04-01T00:12:09;20.80;;;9.13;;
56399;SDS011;42298;53.638;9.876;2023-04-01T00:14:34;15.98;;;8.30;;
56399;SDS011;42298;53.638;9.876;2023-04-01T00:17:02;13.23;;;7.05;;
56399;SDS011;42298;53.638;9.876;2023-04-01T00:19:27;14.80;;;7.82;;
56399;SDS011;42298;53.638;9.876;2023-04-01T00:21:53;12.45;;;7.03;;
56399;SDS011;42298;53.638;9.876;2023-04-01T00:24:18;14.10;;;7.70;;
56399;SDS011;42298;53.638;9.876;2023-04-01T00:26:43;15.13;;;8.00;;
56399;SDS011;42298;53.638;9.876;2023-04-01T00:29:09;13.57;;;6.57;;
56399;SDS011;42298;53.638;9.876;2023-04-01T00:31:34;14.13;;;7.90;;
56399;SDS011;42298;53.638;9.876;2023-04-01T00:34:00;12.80;;;6.70;;
56399;SDS011;42298;53.638;9.876;2023-04-01T00:36:25;14.88;;;8.00;;
56399;SDS011;42298;53.638;9.876;2023-04-01T00:38:50;14.00;;;7.22;;
56399;SDS011;42298;53.638;9.876;2023-04-01T00:41:17;16.42;;;8.77;;
56399;SDS011;42298;53.638;9.876;2023-04-01T00:43:44;14.35;;;7.97;;
56399;SDS011;42298;53.638;9.876;2023-04-01T00:46:11;19.00;;;9.52;;
56399;SDS011;42298;53.638;9.876;2023-04-01T00:48:42;15.70;;;9.13;;
56399;SDS011;42298;53.638;9.876;2023-04-01T00:51:23;12.65;;;7.10;;
56399;SDS011;42298;53.638;9.876;2023-04-01T00:53:53;13.07;;;7.43;;
56399;SDS011;42298;53.638;9.876;2023-04-01T00:56:36;19.30;;;10.48;;
56399;SDS011;42298;53.638;9.876;2023-04-01T00:59:11;14.95;;;8.25;;
56399;SDS011;42298;53.638;9.876;2023-04-01T01:01:40;16.60;;;8.52;;
56399;SDS011;42298;53.638;9.876;2023-04-01T01:04:06;14.18;;;8.52;;
56399;SDS011;42298;53.638;9.876;2023-04-01T01:06:39;14.50;;;8.52;;
56399;SDS011;42298;53.638;9.876;2023-04-01T01:12:13;15.65;;;8.55;;
56399;SDS011;42298;53.638;9.876;2023-04-01T01:14:48;15.23;;;8.23;;
56399;SDS011;42298;53.638;9.876;2023-04-01T01:25:39;19.23;;;9.70;;
56399;SDS011;42298;53.638;9.876;2023-04-01T01:31:21;15.90;;;8.70;;
56399;SDS011;42298;53.638;9.876;2023-04-01T01:34:11;14.15;;;8.52;;
56399;SDS011;42298;53.638;9.876;2023-04-01T01:36:48;16.52;;;9.23;;
56399;SDS011;42298;53.638;9.876;2023-04-01T01:39:21;18.25;;;8.82;;
56399;SDS011;42298;53.638;9.876;2023-04-01T01:41:52;16.13;;;8.15;;
56399;SDS011;42298;53.638;9.876;2023-04-01T01:44:20;15.85;;;9.48;;
56399;SDS011;42298;53.638;9.876;2023-04-01T01:46:47;19.05;;;10.35;;
56399;SDS011;42298;53.638;9.876;2023-04-01T01:49:14;15.73;;;8.68;;
56399;SDS011;42298;53.638;9.876;2023-04-01T01:51:41;13.82;;;8.30;;
56399;SDS011;42298;53.638;9.876;2023-04-01T01:54:11;14.20;;;8.05;;
56399;SDS011;42298;53.638;9.876;2023-04-01T01:56:39;14.40;;;8.15;;
56399;SDS011;42298;53.638;9.876;2023-04-01T01:59:09;13.55;;;7.72;;
56399;SDS011;42298;53.638;9.876;2023-04-01T02:01:37;17.38;;;9.05;;
56399;SDS011;42298;53.638;9.876;2023-04-01T02:04:06;16.42;;;8.77;;
56399;SDS011;42298;53.638;9.876;2023-04-01T02:06:35;14.32;;;7.88;;
56399;SDS011;42298;53.638;9.876;2023-04-01T02:09:06;11.63;;;7.25;;
56399;SDS011;42298;53.638;9.876;2023-04-01T02:14:33;18.02;;;8.77;;
56399;SDS011;42298;53.638;9.876;2023-04-01T02:17:11;16.17;;;7.68;;
56399;SDS011;42298;53.638;9.876;2023-04-01T02:19:46;15.40;;;7.30;;
56399;SDS011;42298;53.638;9.876;2023-04-01T02:22:17;15.48;;;7.55;;
56399;SDS011;42298;53.638;9.876;2023-04-01T02:24:46;14.23;;;8.25;;
56399;SDS011;42298;53.638;9.876;2023-04-01T02:27:15;13.02;;;8.38;;
56399;SDS011;42298;53.638;9.876;2023-04-01T02:29:40;14.23;;;7.68;;
56399;SDS011;42298;53.638;9.876;2023-04-01T02:32:06;17.75;;;8.00;;
56399;SDS011;42298;53.638;9.876;2023-04-01T02:34:33;15.93;;;7.97;;
56399;SDS011;42298;53.638;9.876;2023-04-01T02:36:59;12.38;;;7.43;;
56399;SDS011;42298;53.638;9.876;2023-04-01T02:39:25;13.93;;;7.55;;
56399;SDS011;42298;53.638;9.876;2023-04-01T02:41:51;15.67;;;7.67;;
56399;SDS011;42298;53.638;9.876;2023-04-01T02:44:17;14.10;;;7.78;;
56399;SDS011;42298;53.638;9.876;2023-04-01T02:46:43;13.77;;;7.10;;
56399;SDS011;42298;53.638;9.876;2023-04-01T02:49:08;15.35;;;7.90;;
56399;SDS011;42298;53.638;9.876;2023-04-01T02:51:33;13.80;;;6.90;;
56399;SDS011;42298;53.638;9.876;2023-04-01T02:53:59;14.52;;;7.78;;
56399;SDS011;42298;53.638;9.876;2023-04-01T02:56:25;12.85;;;6.38;;
56399;SDS011;42298;53.638;9.876;2023-04-01T02:58:51;16.75;;;7.30;;
56399;SDS011;42298;53.638;9.876;2023-04-01T03:01:17;14.98;;;6.95;;
56399;SDS011;42298;53.638;9.876;2023-04-01T03:03:43;14.00;;;6.63;;
56399;SDS011;42298;53.638;9.876;2023-04-01T03:06:09;14.73;;;7.20;;
56399;SDS011;42298;53.638;9.876;2023-04-01T03:08:36;16.38;;;7.05;;
56399;SDS011;42298;53.638;9.876;2023-04-01T03:11:02;12.18;;;6.70;;
56399;SDS011;42298;53.638;9.876;2023-04-01T03:13:28;13.07;;;6.82;;
56399;SDS011;42298;53.638;9.876;2023-04-01T03:15:53;14.27;;;7.60;;
56399;SDS011;42298;53.638;9.876;2023-04-01T03:18:19;14.00;;;7.10;;
56399;SDS011;42298;53.638;9.876;2023-04-01T03:20:45;14.10;;;8.00;;
56399;SDS011;42298;53.638;9.876;2023-04-01T03:23:10;12.77;;;7.23;;
56399;SDS011;42298;53.638;9.876;2023-04-01T03:25:36;13.00;;;7.20;;
56399;SDS011;42298;53.638;9.876;2023-04-01T03:28:01;13.55;;;7.68;;
56399;SDS011;42298;53.638;9.876;2023-04-01T03:30:27;13.37;;;7.50;;
56399;SDS011;42298;53.638;9.876;2023-04-01T03:32:54;12.87;;;7.13;;
56399;SDS011;42298;53.638;9.876;2023-04-01T03:35:20;14.43;;;8.00;;
56399;SDS011;42298;53.638;9.876;2023-04-01T03:37:45;16.10;;;7.80;;
56399;SDS011;42298;53.638;9.876;2023-04-01T03:40:10;16.40;;;8.38;;
56399;SDS011;42298;53.638;9.876;2023-04-01T03:42:36;12.73;;;8.10;;
56399;SDS011;42298;53.638;9.876;2023-04-01T03:45:02;15.38;;;8.35;;
56399;SDS011;42298;53.638;9.876;2023-04-01T03:47:28;17.70;;;8.50;;
56399;SDS011;42298;53.638;9.876;2023-04-01T03:49:54;15.18;;;8.82;;
56399;SDS011;42298;53.638;9.876;2023-04-01T03:52:19;15.60;;;9.03;;
56399;SDS011;42298;53.638;9.876;2023-04-01T03:54:45;15.87;;;8.80;;
56399;SDS011;42298;53.638;9.876;2023-04-01T03:57:10;16.23;;;8.88;;
56399;SDS011;42298;53.638;9.876;2023-04-01T03:59:35;18.23;;;9.10;;
56399;SDS011;42298;53.638;9.876;2023-04-01T04:02:01;18.43;;;8.97;;
56399;SDS011;42298;53.638;9.876;2023-04-01T04:04:27;16.92;;;8.90;;
56399;SDS011;42298;53.638;9.876;2023-04-01T04:06:52;15.80;;;7.97;;
56399;SDS011;42298;53.638;9.876;2023-04-01T04:09:18;12.97;;;7.37;;
56399;SDS011;42298;53.638;9.876;2023-04-01T04:11:43;16.27;;;8.27;;
56399;SDS011;42298;53.638;9.876;2023-04-01T04:14:08;15.43;;;8.37;;
56399;SDS011;42298;53.638;9.876;2023-04-01T04:16:35;15.85;;;8.18;;
56399;SDS011;42298;53.638;9.876;2023-04-01T04:19:03;16.20;;;8.05;;
56399;SDS011;42298;53.638;9.876;2023-04-01T04:21:29;15.47;;;7.70;;
56399;SDS011;42298;53.638;9.876;2023-04-01T04:23:54;15.20;;;8.32;;
56399;SDS011;42298;53.638;9.876;2023-04-01T04:26:20;17.90;;;8.73;;
56399;SDS011;42298;53.638;9.876;2023-04-01T04:28:45;15.47;;;8.33;;
56399;SDS011;42298;53.638;9.876;2023-04-01T04:31:11;15.40;;;9.00;;
56399;SDS011;42298;53.638;9.876;2023-04-01T04:33:36;14.90;;;8.30;;
56399;SDS011;42298;53.638;9.876;2023-04-01T04:36:02;14.95;;;7.97;;
56399;SDS011;42298;53.638;9.876;2023-04-01T04:38:28;12.13;;;7.35;;
56399;SDS011;42298;53.638;9.876;2023-04-01T04:40:54;16.55;;;9.07;;
56399;SDS011;42298;53.638;9.876;2023-04-01T04:43:19;14.48;;;8.15;;
56399;SDS011;42298;53.638;9.876;2023-04-01T04:45:45;15.57;;;9.23;;
56399;SDS011;42298;53.638;9.876;2023-04-01T04:48:11;11.37;;;6.53;;
56399;SDS011;42298;53.638;9.876;2023-04-01T04:50:41;6.83;;;3.87;;
56399;SDS011;42298;53.638;9.876;2023-04-01T04:53:09;6.77;;;3.63;;
56399;SDS011;42298;53.638;9.876;2023-04-01T04:55:35;4.80;;;2.70;;
56399;SDS011;42298;53.638;9.876;2023-04-01T04:58:00;3.37;;;2.37;;
56399;SDS011;42298;53.638;9.876;2023-04-01T05:00:26;3.70;;;2.10;;
56399;SDS011;42298;53.638;9.876;2023-04-01T05:02:51;3.07;;;2.00;;
56399;SDS011;42298;53.638;9.876;2023-04-01T05:05:16;4.40;;;2.07;;
56399;SDS011;42298;53.638;9.876;2023-04-01T05:07:42;2.23;;;1.83;;
56399;SDS011;42298;53.638;9.876;2023-04-01T05:10:07;3.20;;;1.80;;
56399;SDS011;42298;53.638;9.876;2023-04-01T05:12:33;2.33;;;1.67;;
56399;SDS011;42298;53.638;9.876;2023-04-01T05:15:03;2.93;;;2.00;;
56399;SDS011;42298;53.638;9.876;2023-04-01T05:17:30;2.53;;;1.97;;
56399;SDS011;42298;53.638;9.876;2023-04-01T05:19:56;4.07;;;2.17;;
56399;SDS011;42298;53.638;9.876;2023-04-01T05:22:22;2.97;;;1.97;;
56399;SDS011;42298;53.638;9.876;2023-04-01T05:24:47;4.30;;;2.13;;
56399;SDS011;42298;53.638;9.876;2023-04-01T05:27:12;4.20;;;2.23;;
56399;SDS011;42298;53.638;9.876;2023-04-01T05:29:38;4.43;;;2.33;;
56399;SDS011;42298;53.638;9.876;2023-04-01T05:32:03;3.13;;;2.30;;
56399;SDS011;42298;53.638;9.876;2023-04-01T05:34:29;4.67;;;2.47;;
56399;SDS011;42298;53.638;9.876;2023-04-01T05:36:54;2.60;;;2.00;;
56399;SDS011;42298;53.638;9.876;2023-04-01T05:39:19;3.73;;;2.20;;
56399;SDS011;42298;53.638;9.876;2023-04-01T05:41:45;3.30;;;2.17;;
56399;SDS011;42298;53.638;9.876;2023-04-01T05:44:11;3.83;;;2.23;;
56399;SDS011;42298;53.638;9.876;2023-04-01T05:46:37;2.27;;;2.00;;
56399;SDS011;42298;53.638;9.876;2023-04-01T05:49:05;3.10;;;1.90;;
56399;SDS011;42298;53.638;9.876;2023-04-01T05:51:32;2.67;;;2.00;;
56399;SDS011;42298;53.638;9.876;2023-04-01T05:53:58;3.17;;;2.20;;
56399;SDS011;42298;53.638;9.876;2023-04-01T05:56:23;2.90;;;2.10;;
56399;SDS011;42298;53.638;9.876;2023-04-01T05:58:50;2.63;;;2.07;;
56399;SDS011;42298;53.638;9.876;2023-04-01T06:01:18;2.57;;;2.00;;
56399;SDS011;42298;53.638;9.876;2023-04-01T06:03:45;2.30;;;1.90;;
56399;SDS011;42298;53.638;9.876;2023-04-01T06:06:14;1.93;;;1.73;;
56399;SDS011;42298;53.638;9.876;2023-04-01T06:08:44;2.20;;;1.80;;
56399;SDS011;42298;53.638;9.876;2023-04-01T06:22:39;2.27;;;1.77;;
56399;SDS011;42298;53.638;9.876;2023-04-01T06:31:19;3.03;;;1.87;;
56399;SDS011;42298;53.638;9.876;2023-04-01T06:33:55;1.70;;;1.60;;
56399;SDS011;42298;53.638;9.876;2023-04-01T06:36:43;4.17;;;1.87;;
56399;SDS011;42298;53.638;9.876;2023-04-01T06:42:14;3.23;;;1.70;;
56399;SDS011;42298;53.638;9.876;2023-04-01T06:45:12;2.07;;;1.80;;
56399;SDS011;42298;53.638;9.876;2023-04-01T06:51:19;2.27;;;1.70;;
56399;SDS011;42298;53.638;9.876;2023-04-01T06:54:00;2.60;;;1.57;;
56399;SDS011;42298;53.638;9.876;2023-04-01T06:56:32;1.40;;;1.30;;
56399;SDS011;42298;53.638;9.876;2023-04-01T06:59:05;2.27;;;1.80;;
56399;SDS011;42298;53.638;9.876;2023-04-01T07:01:47;2.27;;;1.67;;
56399;SDS011;42298;53.638;9.876;2023-04-01T07:04:25;1.53;;;1.30;;
56399;SDS011;42298;53.638;9.876;2023-04-01T07:06:58;2.23;;;1.60;;
56399;SDS011;42298;53.638;9.876;2023-04-01T07:09:39;2.27;;;1.70;;
56399;SDS011;42298;53.638;9.876;2023-04-01T07:12:29;1.53;;;1.43;;
56399;SDS011;42298;53.638;9.876;2023-04-01T07:15:00;1.83;;;1.50;;
56399;SDS011;42298;53.638;9.876;2023-04-01T07:17:31;2.20;;;1.47;;
56399;SDS011;42298;53.638;9.876;2023-04-01T07:20:03;1.93;;;1.50;;
56399;SDS011;42298;53.638;9.876;2023-04-01T07:22:43;1.60;;;1.40;;
56399;SDS011;42298;53.638;9.876;2023-04-01T07:27:37;2.67;;;1.80;;
56399;SDS011;42298;53.638;9.876;2023-04-01T07:30:06;2.27;;;1.70;;
56399;SDS011;42298;53.638;9.876;2023-04-01T07:32:42;1.50;;;1.40;;
56399;SDS011;42298;53.638;9.876;2023-04-01T07:48:55;3.03;;;1.70;;
56399;SDS011;42298;53.638;9.876;2023-04-01T07:54:12;2.43;;;1.77;;
56399;SDS011;42298;53.638;9.876;2023-04-01T08:04:51;1.73;;;1.63;;
56399;SDS011;42298;53.638;9.876;2023-04-01T08:13:22;2.93;;;1.90;;
56399;SDS011;42298;53.638;9.876;2023-04-01T08:21:45;2.90;;;1.90;;
56399;SDS011;42298;53.638;9.876;2023-04-01T08:27:17;3.60;;;1.80;;
56399;SDS011;42298;53.638;9.876;2023-04-01T08:29:50;3.23;;;1.70;;
56399;SDS011;42298;53.638;9.876;2023-04-01T08:32:23;1.77;;;1.67;;
56399;SDS011;42298;53.638;9.876;2023-04-01T08:35:02;2.70;;;1.87;;
56399;SDS011;42298;53.638;9.876;2023-04-01T08:37:35;2.37;;;1.87;;
56399;SDS011;42298;53.638;9.876;2023-04-01T08:42:46;2.67;;;1.70;;
56399;SDS011;42298;53.638;9.876;2023-04-01T08:45:30;2.47;;;1.87;;
56399;SDS011;42298;53.638;9.876;2023-04-01T09:08:48;4.97;;;1.67;;
56399;SDS011;42298;53.638;9.876;2023-04-01T09:19:33;2.43;;;1.50;;
56399;SDS011;42298;53.638;9.876;2023-04-01T09:22:35;2.47;;;1.50;;
56399;SDS011;42298;53.638;9.876;2023-04-01T09:28:12;2.27;;;1.77;;
56399;SDS011;42298;53.638;9.876;2023-04-01T09:33:46;1.87;;;1.50;;
56399;SDS011;42298;53.638;9.876;2023-04-01T09:36:45;1.57;;;1.47;;
56399;SDS011;42298;53.638;9.876;2023-04-01T09:42:08;3.50;;;2.07;;
56399;SDS011;42298;53.638;9.876;2023-04-01T09:44:53;2.17;;;1.73;;
56399;SDS011;42298;53.638;9.876;2023-04-01T09:52:34;1.40;;;1.30;;
56399;SDS011;42298;53.638;9.876;2023-04-01T09:57:39;3.90;;;2.20;;
56399;SDS011;42298;53.638;9.876;2023-04-01T10:00:45;1.40;;;1.30;;
56399;SDS011;42298;53.638;9.876;2023-04-01T10:20:37;2.03;;;1.40;;
56399;SDS011;42298;53.638;9.876;2023-04-01T10:28:30;2.30;;;1.30;;
56399;SDS011;42298;53.638;9.876;2023-04-01T10:45:37;2.07;;;1.53;;
56399;SDS011;42298;53.638;9.876;2023-04-01T10:51:25;1.60;;;1.27;;
56399;SDS011;42298;53.638;9.876;2023-04-01T10:54:33;3.00;;;1.90;;
56399;SDS011;42298;53.638;9.876;2023-04-01T11:00:15;4.83;;;2.60;;
56399;SDS011;42298;53.638;9.876;2023-04-01T11:03:10;2.13;;;1.63;;
56399;SDS011;42298;53.638;9.876;2023-04-01T11:09:02;1.90;;;1.53;;
56399;SDS011;42298;53.638;9.876;2023-04-01T11:18:18;2.37;;;1.60;;
56399;SDS011;42298;53.638;9.876;2023-04-01T11:26:52;6.10;;;2.00;;
56399;SDS011;42298;53.638;9.876;2023-04-01T11:32:26;6.00;;;2.50;;
56399;SDS011;42298;53.638;9.876;2023-04-01T11:35:06;3.37;;;2.50;;
56399;SDS011;42298;53.638;9.876;2023-04-01T11:37:54;6.47;;;3.00;;
56399;SDS011;42298;53.638;9.876;2023-04-01T11:40:36;3.57;;;2.50;;
56399;SDS011;42298;53.638;9.876;2023-04-01T11:43:13;5.57;;;2.90;;
56399;SDS011;42298;53.638;9.876;2023-04-01T11:46:00;4.53;;;2.73;;
56399;SDS011;42298;53.638;9.876;2023-04-01T11:54:33;5.10;;;2.87;;
56399;SDS011;42298;53.638;9.876;2023-04-01T11:57:27;8.00;;;3.57;;
56399;SDS011;42298;53.638;9.876;2023-04-01T12:09:17;6.83;;;3.50;;
56399;SDS011;42298;53.638;9.876;2023-04-01T12:20:39;9.50;;;4.43;;
56399;SDS011;42298;53.638;9.876;2023-04-01T12:23:16;7.80;;;4.40;;
56399;SDS011;42298;53.638;9.876;2023-04-01T12:28:44;7.97;;;3.70;;
56399;SDS011;42298;53.638;9.876;2023-04-01T12:31:27;8.67;;;4.20;;
56399;SDS011;42298;53.638;9.876;2023-04-01T12:40:17;7.63;;;4.10;;
56399;SDS011;42298;53.638;9.876;2023-04-01T12:45:35;8.00;;;4.23;;
56399;SDS011;42298;53.638;9.876;2023-04-01T12:59:27;9.07;;;4.77;;
56399;SDS011;42298;53.638;9.876;2023-04-01T13:02:20;9.07;;;4.60;;
56399;SDS011;42298;53.638;9.876;2023-04-01T13:05:01;7.93;;;4.00;;
56399;SDS011;42298;53.638;9.876;2023-04-01T13:10:30;7.90;;;4.33;;
56399;SDS011;42298;53.638;9.876;2023-04-01T13:21:04;8.70;;;4.10;;
56399;SDS011;42298;53.638;9.876;2023-04-01T13:29:02;8.90;;;4.83;;
56399;SDS011;42298;53.638;9.876;2023-04-01T13:34:59;10.33;;;4.73;;
56399;SDS011;42298;53.638;9.876;2023-04-01T13:54:05;11.30;;;4.50;;
56399;SDS011;42298;53.638;9.876;2023-04-01T14:10:31;9.57;;;4.77;;
56399;SDS011;42298;53.638;9.876;2023-04-01T14:23:54;10.57;;;5.03;;
56399;SDS011;42298;53.638;9.876;2023-04-01T14:29:41;11.93;;;4.83;;
56399;SDS011;42298;53.638;9.876;2023-04-01T14:32:16;8.60;;;4.50;;
56399;SDS011;42298;53.638;9.876;2023-04-01T14:40:48;10.90;;;4.37;;
56399;SDS011;42298;53.638;9.876;2023-04-01T14:43:28;8.83;;;4.70;;
56399;SDS011;42298;53.638;9.876;2023-04-01T14:52:11;12.03;;;4.97;;
56399;SDS011;42298;53.638;9.876;2023-04-01T14:54:42;10.20;;;5.03;;
56399;SDS011;42298;53.638;9.876;2023-04-01T14:57:11;12.77;;;5.50;;
56399;SDS011;42298;53.638;9.876;2023-04-01T14:59:52;9.97;;;5.17;;
56399;SDS011;42298;53.638;9.876;2023-04-01T15:05:27;9.90;;;4.80;;
56399;SDS011;42298;53.638;9.876;2023-04-01T15:08:15;10.83;;;4.77;;
56399;SDS011;42298;53.638;9.876;2023-04-01T15:18:34;12.63;;;4.90;;
56399;SDS011;42298;53.638;9.876;2023-04-01T15:32:54;9.83;;;4.70;;
56399;SDS011;42298;53.638;9.876;2023-04-01T15:38:21;13.83;;;5.20;;
56399;SDS011;42298;53.638;9.876;2023-04-01T15:41:24;8.73;;;4.70;;
56399;SDS011;42298;53.638;9.876;2023-04-01T15:46:55;9.63;;;4.40;;
56399;SDS011;42298;53.638;9.876;2023-04-01T15:54:51;10.90;;;4.90;;
56399;SDS011;42298;53.638;9.876;2023-04-01T15:57:41;10.10;;;5.10;;
56399;SDS011;42298;53.638;9.876;2023-04-01T16:19:51;13.63;;;5.83;;
56399;SDS011;42298;53.638;9.876;2023-04-01T16:24:55;13.37;;;6.53;;
56399;SDS011;42298;53.638;9.876;2023-04-01T16:30:25;13.23;;;7.00;;
56399;SDS011;42298;53.638;9.876;2023-04-01T16:38:26;14.77;;;6.13;;
56399;SDS011;42298;53.638;9.876;2023-04-01T16:41:11;11.87;;;5.90;;
56399;SDS011;42298;53.638;9.876;2023-04-01T16:43:44;13.07;;;6.23;;
56399;SDS011;42298;53.638;9.876;2023-04-01T16:46:32;15.87;;;6.30;;
56399;SDS011;42298;53.638;9.876;2023-04-01T16:49:03;17.07;;;12.10;;
56399;SDS011;42298;53.638;9.876;2023-04-01T16:59:36;13.73;;;6.23;;
56399;SDS011;42298;53.638;9.876;2023-04-01T17:12:43;16.57;;;6.20;;
56399;SDS011;42298;53.638;9.876;2023-04-01T17:15:40;14.80;;;5.93;;
56399;SDS011;42298;53.638;9.876;2023-04-01T17:21:16;13.87;;;6.90;;
56399;SDS011;42298;53.638;9.876;2023-04-01T17:24:00;13.80;;;6.10;;
56399;SDS011;42298;53.638;9.876;2023-04-01T17:26:55;13.07;;;5.27;;
56399;SDS011;42298;53.638;9.876;2023-04-01T17:32:25;11.90;;;4.97;;
56399;SDS011;42298;53.638;9.876;2023-04-01T17:35:19;16.40;;;6.10;;
56399;SDS011;42298;53.638;9.876;2023-04-01T17:46:05;9.57;;;4.53;;
56399;SDS011;42298;53.638;9.876;2023-04-01T17:56:57;7.67;;;3.97;;
56399;SDS011;42298;53.638;9.876;2023-04-01T17:59:53;14.00;;;5.57;;
56399;SDS011;42298;53.638;9.876;2023-04-01T18:05:19;10.50;;;4.57;;
56399;SDS011;42298;53.638;9.876;2023-04-01T18:07:56;9.50;;;4.33;;
56399;SDS011;42298;53.638;9.876;2023-04-01T18:10:35;10.30;;;4.33;;
56399;SDS011;42298;53.638;9.876;2023-04-01T18:13:25;7.97;;;4.10;;
56399;SDS011;42298;53.638;9.876;2023-04-01T18:16:02;8.83;;;4.03;;
56399;SDS011;42298;53.638;9.876;2023-04-01T18:21:49;8.13;;;3.53;;
56399;SDS011;42298;53.638;9.876;2023-04-01T18:24:40;7.43;;;4.00;;
56399;SDS011;42298;53.638;9.876;2023-04-01T18:27:29;9.50;;;3.97;;
56399;SDS011;42298;53.638;9.876;2023-04-01T18:30:17;7.90;;;3.80;;
56399;SDS011;42298;53.638;9.876;2023-04-01T18:32:59;8.50;;;4.10;;
56399;SDS011;42298;53.638;9.876;2023-04-01T18:38:36;10.23;;;4.60;;
56399;SDS011;42298;53.638;9.876;2023-04-01T18:41:25;9.93;;;4.23;;
56399;SDS011;42298;53.638;9.876;2023-04-01T18:44:19;8.77;;;3.87;;
56399;SDS011;42298;53.638;9.876;2023-04-01T18:50:02;10.47;;;4.40;;
56399;SDS011;42298;53.638;9.876;2023-04-01T18:52:42;11.80;;;3.90;;
56399;SDS011;42298;53.638;9.876;2023-04-01T18:55:20;10.37;;;5.37;;
56399;SDS011;42298;53.638;9.876;2023-04-01T18:57:48;10.27;;;3.90;;
56399;SDS011;42298;53.638;9.876;2023-04-01T19:05:47;8.13;;;4.07;;
56399;SDS011;42298;53.638;9.876;2023-04-01T19:08:20;10.17;;;4.10;;
56399;SDS011;42298;53.638;9.876;2023-04-01T19:16:39;13.23;;;5.10;;
56399;SDS011;42298;53.638;9.876;2023-04-01T19:30:51;7.40;;;3.67;;
56399;SDS011;42298;53.638;9.876;2023-04-01T19:44:48;7.83;;;3.60;;
56399;SDS011;42298;53.638;9.876;2023-04-01T19:50:19;10.83;;;4.53;;
56399;SDS011;42298;53.638;9.876;2023-04-01T19:57:06;7.80;;;4.27;;
56399;SDS011;42298;53.638;9.876;2023-04-01T20:53:04;11.27;;;3.50;;
56399;SDS011;42298;53.638;9.876;2023-04-01T20:55:52;9.10;;;3.07;;
56399;SDS011;42298;53.638;9.876;2023-04-01T21:04:35;7.90;;;3.50;;
56399;SDS011;42298;53.638;9.876;2023-04-01T21:07:21;11.43;;;3.70;;
56399;SDS011;42298;53.638;9.876;2023-04-01T21:15:46;9.20;;;3.60;;
56399;SDS011;42298;53.638;9.876;2023-04-01T21:32:17;8.90;;;3.67;;
56399;SDS011;42298;53.638;9.876;2023-04-01T21:46:41;9.93;;;3.17;;
56399;SDS011;42298;53.638;9.876;2023-04-01T21:51:56;10.87;;;3.23;;
56399;SDS011;42298;53.638;9.876;2023-04-01T22:00:25;8.23;;;2.70;;
56399;SDS011;42298;53.638;9.876;2023-04-01T22:08:53;5.60;;;2.83;;
56399;SDS011;42298;53.638;9.876;2023-04-01T22:14:38;9.03;;;3.00;;
56399;SDS011;42298;53.638;9.876;2023-04-01T22:17:17;9.80;;;3.07;;
56399;SDS011;42298;53.638;9.876;2023-04-01T22:25:29;7.87;;;2.80;;
56399;SDS011;42298;53.638;9.876;2023-04-01T22:30:56;7.00;;;2.97;;
56399;SDS011;42298;53.638;9.876;2023-04-01T22:44:31;9.07;;;2.67;;
56399;SDS011;42298;53.638;9.876;2023-04-01T22:52:44;6.07;;;2.47;;
56399;SDS011;42298;53.638;9.876;2023-04-01T22:55:24;13.40;;;2.70;;
56399;SDS011;42298;53.638;9.876;2023-04-01T22:58:00;7.40;;;2.60;;
56399;SDS011;42298;53.638;9.876;2023-04-01T23:00:47;8.57;;;2.50;;
56399;SDS011;42298;53.638;9.876;2023-04-01T23:03:25;4.77;;;2.33;;
56399;SDS011;42298;53.638;9.876;2023-04-01T23:06:05;9.83;;;2.47;;
56399;SDS011;42298;53.638;9.876;2023-04-01T23:11:23;6.90;;;2.60;;
56399;SDS011;42298;53.638;9.876;2023-04-01T23:14:14;8.87;;;2.40;;
56399;SDS011;42298;53.638;9.876;2023-04-01T23:19:56;8.57;;;2.33;;
56399;SDS011;42298;53.638;9.876;2023-04-01T23:30:48;6.27;;;2.03;;
56399;SDS011;42298;53.638;9.876;2023-04-01T23:35:52;6.30;;;2.30;;
56399;SDS011;42298;53.638;9.876;2023-04-01T23:38:19;6.27;;;2.20;;
56399;SDS011;42298;53.638;9.876;2023-04-01T23:40:47;10.27;;;2.50;;
56399;SDS011;42298;53.638;9.876;2023-04-01T23:46:10;5.73;;;2.30;;
56399;SDS011;42298;53.638;9.876;2023-04-01T23:48:39;6.50;;;2.30;;
56399;SDS011;42298;53.638;9.876;2023-04-01T23:51:27;7.43;;;2.40;;
56399;SDS011;42298;53.638;9.876;2023-04-01T23:56:40;5.70;;;2.30;;
56399;SDS011;42298;53.638;9.876;2023-04-01T23:59:17;9.27;;;2.47;;
